aviador You're here:

KGUS Decoded Metar

PERU in IN, USA
Report Time2017-05-23 14:30:00
UTC Time2017-05-23 14:38:39
Flight Rules vfr VFR
Wind180° at 05 kt
W.Decomp.*RWY 23: 3.3 kt HW 3.7 kt LCW
W.Rank180° ranks 12
Current wind is below 180° avg. (7.3)
Visibility9999 m
Phenomena:N/A
Clouds:Broken 130 Hf
Broken 150 Hf
Expected CloudBase > 2,800 ft AGL from Temp-Dew spread
Ceiling13,000 ft
Temp18°C (ISA +5)
Dew Point11°C (64% RH)
AAT16.5°C
QNH1010 hPa
Density Alt1,631 ft
Elevation810 ft
Report Wrong Elevation
Raw Report
KGUS 231430Z 18005KT 10SM BKN130 BKN150 18/11 A2983 RMK AO2A
SLP102=

Extra information for KGUS:More info

Metar Taf Metar & Taf Last 4 Metars F.Rules Stats Wind Profile Meteogram Temp Stats Airport Information Weather charts Add Link Nearby VenuesMetar ALERT Operation Metar Decoded Social comments

AIRNAV info for KGUS